createdAt,value
2019-01-12T00:01:30.612Z,19.40
2019-01-12T00:04:26.931Z,19.40
2019-01-12T00:07:22.785Z,19.30
2019-01-12T00:10:18.786Z,19.30
2019-01-12T00:13:14.956Z,19.30
2019-01-12T00:16:11.393Z,19.30
2019-01-12T00:19:07.818Z,19.30
2019-01-12T00:22:03.772Z,19.30
2019-01-12T00:24:59.730Z,19.30
2019-01-12T00:27:56.014Z,19.30
2019-01-12T00:30:51.776Z,19.20
2019-01-12T00:33:47.861Z,19.20
2019-01-12T00:36:43.493Z,19.20
2019-01-12T00:39:39.878Z,19.20
2019-01-12T00:42:36.324Z,19.10
2019-01-12T00:45:33.301Z,19.10
2019-01-12T00:48:30.032Z,19.10
2019-01-12T00:51:26.825Z,19.10
2019-01-12T00:54:23.558Z,19.10
2019-01-12T00:57:19.799Z,19.10
2019-01-12T01:00:19.795Z,19.10
2019-01-12T01:03:16.399Z,19.10
2019-01-12T01:06:12.767Z,19.10
2019-01-12T01:09:11.146Z,19.10
2019-01-12T01:12:07.338Z,19.10
2019-01-12T01:15:04.455Z,19.10
2019-01-12T01:18:00.748Z,19.00
2019-01-12T01:20:56.718Z,19.00
2019-01-12T01:23:53.514Z,19.00
2019-01-12T01:26:49.626Z,19.00
2019-01-12T01:29:45.927Z,19.00
2019-01-12T01:32:41.791Z,19.00
2019-01-12T01:35:37.933Z,19.00
2019-01-12T01:38:34.030Z,19.00
2019-01-12T01:41:30.405Z,18.90
2019-01-12T01:44:26.438Z,18.90
2019-01-12T01:47:22.422Z,18.90
2019-01-12T01:50:19.331Z,18.90
2019-01-12T01:53:16.022Z,18.90
2019-01-12T01:56:12.175Z,18.90
2019-01-12T01:59:08.522Z,18.90
2019-01-12T02:02:04.716Z,18.90
2019-01-12T02:05:00.769Z,18.90
2019-01-12T02:07:56.911Z,18.90
2019-01-12T02:10:52.866Z,18.90
2019-01-12T02:13:49.297Z,18.90
2019-01-12T02:16:45.432Z,18.90
2019-01-12T02:19:41.317Z,19.00
2019-01-12T02:22:37.803Z,19.00
2019-01-12T02:25:33.739Z,19.00
2019-01-12T02:28:30.068Z,19.00
2019-01-12T02:31:26.008Z,19.10
2019-01-12T02:34:22.659Z,19.10
2019-01-12T02:37:19.105Z,19.20
2019-01-12T02:40:16.196Z,19.20
2019-01-12T02:43:12.295Z,19.20
2019-01-12T02:46:08.305Z,19.30
2019-01-12T02:49:04.383Z,19.30
2019-01-12T02:52:01.379Z,19.30
2019-01-12T02:54:57.520Z,19.40
2019-01-12T02:57:54.155Z,19.40
2019-01-12T03:00:50.797Z,19.40
2019-01-12T03:03:47.333Z,19.50
2019-01-12T03:06:44.016Z,19.50
2019-01-12T03:09:40.618Z,19.50
2019-01-12T03:12:36.082Z,19.60
2019-01-12T03:15:32.658Z,19.60
2019-01-12T03:18:28.605Z,19.60
2019-01-12T03:21:25.246Z,19.70
2019-01-12T03:24:21.161Z,19.70
2019-01-12T03:27:17.599Z,19.70
2019-01-12T03:30:17.519Z,19.80
2019-01-12T03:33:14.310Z,19.80
2019-01-12T03:36:10.801Z,19.90
2019-01-12T03:39:08.191Z,19.90
2019-01-12T03:42:04.751Z,19.90
2019-01-12T03:45:02.010Z,20.00
2019-01-12T03:47:58.272Z,20.10
2019-01-12T03:50:54.075Z,20.10
2019-01-12T03:53:51.517Z,20.20
2019-01-12T03:56:48.310Z,20.20
2019-01-12T03:59:44.133Z,20.30
2019-01-12T04:02:40.792Z,20.30
2019-01-12T04:05:36.997Z,20.40
2019-01-12T04:08:33.311Z,20.40
2019-01-12T04:11:29.414Z,20.50
2019-01-12T04:14:25.283Z,20.50
2019-01-12T04:17:21.411Z,20.50
2019-01-12T04:20:19.683Z,20.60
2019-01-12T04:23:16.557Z,20.70
2019-01-12T04:26:12.887Z,20.70
2019-01-12T04:29:09.729Z,20.70
2019-01-12T04:32:05.740Z,20.80
2019-01-12T04:35:02.074Z,20.90
2019-01-12T04:37:57.915Z,20.90
2019-01-12T04:40:54.967Z,20.90
2019-01-12T04:43:51.287Z,21.00
2019-01-12T04:46:47.551Z,21.10
2019-01-12T04:49:44.411Z,21.10
2019-01-12T04:52:41.090Z,21.20
2019-01-12T04:55:41.628Z,21.20
2019-01-12T04:58:35.501Z,21.30
2019-01-12T05:01:31.221Z,21.40
2019-01-12T05:04:28.402Z,21.40
2019-01-12T05:07:24.451Z,21.50
2019-01-12T05:10:20.813Z,21.50
2019-01-12T05:13:17.704Z,21.60
2019-01-12T05:16:14.864Z,21.70
2019-01-12T05:19:12.226Z,21.70
2019-01-12T05:22:08.842Z,21.90
2019-01-12T05:25:08.451Z,22.00
2019-01-12T05:28:05.635Z,22.10
2019-01-12T05:31:02.574Z,22.10
2019-01-12T05:33:59.369Z,22.20
2019-01-12T05:36:56.780Z,22.30
2019-01-12T05:39:53.249Z,22.40
2019-01-12T05:42:50.164Z,22.40
2019-01-12T05:45:46.869Z,22.50
2019-01-12T05:48:43.961Z,22.50
2019-01-12T05:51:42.548Z,22.60
2019-01-12T05:54:40.270Z,22.70
2019-01-12T05:57:36.651Z,22.70
2019-01-12T06:00:34.013Z,22.80
2019-01-12T06:03:30.778Z,22.90
2019-01-12T06:06:27.589Z,22.90
2019-01-12T06:09:24.025Z,23.00
2019-01-12T06:12:20.981Z,23.00
2019-01-12T06:15:18.203Z,23.10
2019-01-12T06:18:16.001Z,23.20
2019-01-12T06:21:12.599Z,23.30
2019-01-12T06:24:10.781Z,23.30
2019-01-12T06:27:07.460Z,23.40
2019-01-12T06:30:04.720Z,23.50
2019-01-12T06:33:00.535Z,23.60
2019-01-12T06:35:56.465Z,23.70
2019-01-12T06:38:53.107Z,23.80
2019-01-12T06:41:49.539Z,23.90
2019-01-12T06:44:45.667Z,24.00
2019-01-12T06:47:41.787Z,24.10
2019-01-12T06:50:38.637Z,24.20
2019-01-12T06:53:35.806Z,24.30
2019-01-12T06:56:32.645Z,24.40
2019-01-12T06:59:28.677Z,24.40
2019-01-12T07:02:24.816Z,24.50
2019-01-12T07:05:21.238Z,24.60
2019-01-12T07:08:17.497Z,24.70
2019-01-12T07:11:13.804Z,24.90
2019-01-12T07:14:13.350Z,25.00
2019-01-12T07:17:09.452Z,25.00
2019-01-12T07:20:27.484Z,25.10
2019-01-12T07:23:24.029Z,25.20
2019-01-12T07:26:22.600Z,25.40
2019-01-12T07:29:19.961Z,25.60
2019-01-12T07:32:16.843Z,25.80
2019-01-12T07:35:13.133Z,26.00
2019-01-12T07:38:10.287Z,26.30
2019-01-12T07:41:06.520Z,26.50
2019-01-12T07:44:02.764Z,26.60
2019-01-12T07:46:59.185Z,26.80
2019-01-12T07:49:55.064Z,26.80
2019-01-12T07:52:51.905Z,26.80
2019-01-12T07:55:48.278Z,26.80
2019-01-12T07:58:44.335Z,26.70
2019-01-12T08:01:42.812Z,26.70
2019-01-12T08:04:37.316Z,26.60
2019-01-12T08:07:33.572Z,26.60
2019-01-12T08:10:31.413Z,26.60
2019-01-12T08:13:28.357Z,26.60
2019-01-12T08:16:25.347Z,26.60
2019-01-12T08:19:22.356Z,26.80
2019-01-12T08:22:19.409Z,26.90
2019-01-12T08:25:20.761Z,27.00
2019-01-12T08:28:17.646Z,27.10
2019-01-12T08:31:14.900Z,27.10
2019-01-12T08:34:10.793Z,27.10
2019-01-12T08:37:07.245Z,27.10
2019-01-12T08:40:02.963Z,27.10
2019-01-12T08:43:00.386Z,27.10
2019-01-12T08:45:56.843Z,27.10
2019-01-12T08:48:53.345Z,27.10
2019-01-12T08:51:49.907Z,27.00
2019-01-12T08:54:57.309Z,27.00
2019-01-12T08:57:53.195Z,27.00
2019-01-12T09:00:49.460Z,27.00
2019-01-12T09:03:45.285Z,27.00
2019-01-12T09:06:41.532Z,27.00
2019-01-12T09:09:37.627Z,27.00
2019-01-12T09:12:34.271Z,27.10
2019-01-12T09:15:31.447Z,27.10
2019-01-12T09:18:28.265Z,27.10
2019-01-12T09:21:24.984Z,27.20
2019-01-12T09:24:21.045Z,27.30
2019-01-12T09:27:17.435Z,27.40
2019-01-12T09:30:16.905Z,27.50
2019-01-12T09:33:13.500Z,27.70
2019-01-12T09:36:09.568Z,27.80
2019-01-12T09:39:06.412Z,28.10
2019-01-12T09:42:03.990Z,28.20
2019-01-12T09:45:00.717Z,28.30
2019-01-12T09:47:57.326Z,28.50
2019-01-12T09:50:52.921Z,28.60
2019-01-12T09:53:50.645Z,28.70
2019-01-12T09:56:51.752Z,28.70
2019-01-12T09:59:43.918Z,28.70
2019-01-12T10:02:40.250Z,28.70
2019-01-12T10:05:36.804Z,28.70
2019-01-12T10:08:33.649Z,28.60
2019-01-12T10:11:32.950Z,28.50
2019-01-12T10:14:30.000Z,28.40
2019-01-12T10:17:26.400Z,28.20
2019-01-12T10:20:24.614Z,28.20
2019-01-12T10:23:21.171Z,28.10
2019-01-12T10:26:17.255Z,27.90
2019-01-12T10:29:15.452Z,27.90
2019-01-12T10:32:11.822Z,27.80
2019-01-12T10:35:09.027Z,27.80
2019-01-12T10:38:06.261Z,27.70
2019-01-12T10:41:02.483Z,27.70
2019-01-12T10:44:00.679Z,27.70
2019-01-12T10:46:57.842Z,27.60
2019-01-12T10:49:54.209Z,27.60
2019-01-12T10:52:50.335Z,27.50
2019-01-12T10:55:47.246Z,27.50
2019-01-12T10:58:43.602Z,27.40
2019-01-12T11:01:40.594Z,27.40
2019-01-12T11:04:36.484Z,27.40
2019-01-12T11:07:32.693Z,27.40
2019-01-12T11:10:29.288Z,27.30
2019-01-12T11:13:26.296Z,27.30
2019-01-12T11:16:23.550Z,27.20
2019-01-12T11:19:20.365Z,27.10
2019-01-12T11:22:16.744Z,27.10
2019-01-12T11:25:14.114Z,27.00
2019-01-12T11:28:10.155Z,26.90
2019-01-12T11:31:06.454Z,26.80
2019-01-12T11:34:02.551Z,26.70
2019-01-12T11:36:58.327Z,26.60
2019-01-12T11:39:54.194Z,26.60
2019-01-12T11:42:51.185Z,26.50
2019-01-12T11:45:47.095Z,26.40
2019-01-12T11:48:43.632Z,26.30
2019-01-12T11:51:39.466Z,26.20
2019-01-12T11:54:36.016Z,26.10
2019-01-12T11:57:31.933Z,26.00
2019-01-12T12:00:30.759Z,25.90
2019-01-12T12:03:26.852Z,25.80
2019-01-12T12:06:23.400Z,25.70
2019-01-12T12:09:19.313Z,25.60
2019-01-12T12:12:15.539Z,25.60
2019-01-12T12:15:13.217Z,25.50
2019-01-12T12:18:09.601Z,25.40
2019-01-12T12:21:07.277Z,25.30
2019-01-12T12:24:03.469Z,25.20
2019-01-12T12:26:59.576Z,25.20
2019-01-12T12:29:56.143Z,25.10
2019-01-12T12:32:52.553Z,25.00
2019-01-12T12:35:48.909Z,25.00
2019-01-12T12:38:45.854Z,24.90
2019-01-12T12:41:42.055Z,24.90
2019-01-12T12:44:38.924Z,24.80
2019-01-12T12:47:35.230Z,24.70
2019-01-12T12:50:31.764Z,24.70
2019-01-12T12:53:27.981Z,24.60
2019-01-12T12:56:23.940Z,24.60
2019-01-12T12:59:20.408Z,24.50
2019-01-12T13:02:16.819Z,24.50
2019-01-12T13:05:14.175Z,24.50
2019-01-12T13:08:10.708Z,24.40
2019-01-12T13:11:07.461Z,24.40
2019-01-12T13:14:03.769Z,24.30
2019-01-12T13:17:01.061Z,24.30
2019-01-12T13:19:57.785Z,24.20
2019-01-12T13:22:53.897Z,24.20
2019-01-12T13:25:50.467Z,24.10
2019-01-12T13:28:46.776Z,24.10
2019-01-12T13:31:43.108Z,24.10
2019-01-12T13:34:40.641Z,24.00
2019-01-12T13:37:36.122Z,24.00
2019-01-12T13:40:33.865Z,24.00
2019-01-12T13:43:32.240Z,23.90
2019-01-12T13:46:28.889Z,23.90
2019-01-12T13:49:25.409Z,23.90
2019-01-12T13:52:24.397Z,23.90
2019-01-12T13:55:22.090Z,23.90
2019-01-12T13:58:18.734Z,23.80
2019-01-12T14:01:15.491Z,23.80
2019-01-12T14:04:12.134Z,23.80
2019-01-12T14:07:09.048Z,23.80
2019-01-12T14:10:05.700Z,23.70
2019-01-12T14:13:02.344Z,23.70
2019-01-12T14:15:58.682Z,23.70
2019-01-12T14:18:54.419Z,23.60
2019-01-12T14:21:50.207Z,23.60
2019-01-12T14:24:46.862Z,23.60
2019-01-12T14:27:43.192Z,23.60
2019-01-12T14:30:38.710Z,23.50
2019-01-12T14:33:34.716Z,23.50
2019-01-12T14:36:31.261Z,23.50
2019-01-12T14:39:27.795Z,23.40
2019-01-12T14:42:23.776Z,23.40
2019-01-12T14:45:25.873Z,23.40
2019-01-12T14:48:21.936Z,23.40
2019-01-12T14:51:23.128Z,23.30
2019-01-12T14:54:15.836Z,23.30
2019-01-12T14:57:11.719Z,23.30
2019-01-12T15:00:08.488Z,23.20
2019-01-12T15:03:05.249Z,23.20
2019-01-12T15:06:01.277Z,23.20
2019-01-12T15:08:57.408Z,23.20
2019-01-12T15:11:54.447Z,23.20
2019-01-12T15:14:50.451Z,23.10
2019-01-12T15:17:46.551Z,23.10
2019-01-12T15:20:42.991Z,23.10
2019-01-12T15:23:39.577Z,23.10
2019-01-12T15:26:35.475Z,23.10
2019-01-12T15:29:31.945Z,23.10
2019-01-12T15:32:29.518Z,23.00
2019-01-12T15:35:25.235Z,23.00
2019-01-12T15:38:20.817Z,23.00
2019-01-12T15:41:15.994Z,23.00
2019-01-12T15:44:11.616Z,23.00
2019-01-12T15:47:07.103Z,22.90
2019-01-12T15:50:02.864Z,22.90
2019-01-12T15:52:58.655Z,22.90
2019-01-12T15:55:54.019Z,22.80
2019-01-12T15:58:48.974Z,22.80
2019-01-12T16:01:43.594Z,22.80
2019-01-12T16:04:38.691Z,22.80
2019-01-12T16:07:33.663Z,22.70
2019-01-12T16:10:29.507Z,22.70
2019-01-12T16:13:25.431Z,22.70
2019-01-12T16:16:20.584Z,22.70
2019-01-12T16:19:15.658Z,22.70
2019-01-12T16:22:10.834Z,22.60
2019-01-12T16:25:06.576Z,22.60
2019-01-12T16:28:03.094Z,22.60
2019-01-12T16:31:00.110Z,22.50
2019-01-12T16:33:55.760Z,22.50
2019-01-12T16:36:51.252Z,22.50
2019-01-12T16:39:46.198Z,22.50
2019-01-12T16:42:41.587Z,22.50
2019-01-12T16:45:37.054Z,22.50
2019-01-12T16:48:32.328Z,22.50
2019-01-12T16:51:27.082Z,22.50
2019-01-12T16:54:24.416Z,22.50
2019-01-12T16:57:18.358Z,22.50
2019-01-12T17:00:17.577Z,22.40
2019-01-12T17:03:12.930Z,22.40
2019-01-12T17:06:08.246Z,22.40
2019-01-12T17:09:03.375Z,22.40
2019-01-12T17:11:59.470Z,22.30
2019-01-12T17:14:54.915Z,22.30
2019-01-12T17:17:50.237Z,22.30
2019-01-12T17:20:45.742Z,22.30
2019-01-12T17:23:41.035Z,22.30
2019-01-12T17:26:36.073Z,22.20
2019-01-12T17:29:31.173Z,22.20
2019-01-12T17:32:26.265Z,22.20
2019-01-12T17:35:21.135Z,22.20
2019-01-12T17:38:16.353Z,22.20
2019-01-12T17:41:10.985Z,22.10
2019-01-12T17:44:05.590Z,22.10
2019-01-12T17:47:00.206Z,22.10
2019-01-12T17:49:55.116Z,22.10
2019-01-12T17:52:50.668Z,22.10
2019-01-12T17:55:45.727Z,22.10
2019-01-12T17:58:44.613Z,22.00
2019-01-12T18:01:36.225Z,22.10
2019-01-12T18:04:31.969Z,22.10
2019-01-12T18:07:26.884Z,22.00
2019-01-12T18:10:22.045Z,22.00
2019-01-12T18:13:17.648Z,22.00
2019-01-12T18:16:12.896Z,22.00
2019-01-12T18:19:07.985Z,22.00
2019-01-12T18:22:02.889Z,22.00
2019-01-12T18:24:57.660Z,21.90
2019-01-12T18:27:52.221Z,21.90
2019-01-12T18:30:47.656Z,21.90
2019-01-12T18:33:43.244Z,21.90
2019-01-12T18:36:38.235Z,21.80
2019-01-12T18:39:33.669Z,21.90
2019-01-12T18:42:28.793Z,21.80
2019-01-12T18:45:24.466Z,21.80
2019-01-12T18:48:19.350Z,21.80
2019-01-12T18:51:14.513Z,21.70
2019-01-12T18:54:09.806Z,21.70
2019-01-12T18:57:04.853Z,21.70
2019-01-12T18:59:59.736Z,21.70
2019-01-12T19:02:54.902Z,21.70
2019-01-12T19:05:49.158Z,21.60
2019-01-12T19:08:44.438Z,21.60
2019-01-12T19:11:39.206Z,21.60
2019-01-12T19:14:34.146Z,21.60
2019-01-12T19:17:28.892Z,21.60
2019-01-12T19:20:23.668Z,21.60
2019-01-12T19:23:18.363Z,21.60
2019-01-12T19:26:13.243Z,21.70
2019-01-12T19:29:07.834Z,21.60
2019-01-12T19:32:02.906Z,21.60
2019-01-12T19:34:57.476Z,21.60
2019-01-12T19:37:52.255Z,21.60
2019-01-12T19:40:46.816Z,21.50
2019-01-12T19:43:41.638Z,21.50
2019-01-12T19:46:36.523Z,21.50
2019-01-12T19:49:31.378Z,21.50
2019-01-12T19:52:26.121Z,21.40
2019-01-12T19:55:21.006Z,21.40
2019-01-12T19:58:15.460Z,21.40
2019-01-12T20:01:09.905Z,21.30
2019-01-12T20:04:04.924Z,21.30
2019-01-12T20:06:59.471Z,21.30
2019-01-12T20:09:54.081Z,21.30
2019-01-12T20:12:48.868Z,21.20
2019-01-12T20:15:43.615Z,21.20
2019-01-12T20:18:39.459Z,21.20
2019-01-12T20:21:34.273Z,21.20
2019-01-12T20:24:28.983Z,21.20
2019-01-12T20:27:24.068Z,21.10
2019-01-12T20:30:33.586Z,21.10
2019-01-12T20:34:04.348Z,21.10
2019-01-12T20:37:51.269Z,21.10
2019-01-12T20:41:30.769Z,21.10
2019-01-12T20:44:47.181Z,21.20
2019-01-12T20:48:08.969Z,21.20
2019-01-12T20:51:35.729Z,21.10
2019-01-12T20:55:04.964Z,21.10
2019-01-12T20:58:33.281Z,21.10
2019-01-12T21:02:01.107Z,21.10
2019-01-12T21:05:28.813Z,21.00
2019-01-12T21:08:54.885Z,21.00
2019-01-12T21:12:23.280Z,21.00
2019-01-12T21:15:43.965Z,20.90
2019-01-12T21:18:38.988Z,20.90
2019-01-12T21:21:34.954Z,20.90
2019-01-12T21:24:29.704Z,20.90
2019-01-12T21:27:24.739Z,20.90
2019-01-12T21:30:20.537Z,20.90
2019-01-12T21:33:16.390Z,20.80
2019-01-12T21:36:11.732Z,20.80
2019-01-12T21:39:06.974Z,20.80
2019-01-12T21:42:01.764Z,20.80
2019-01-12T21:44:56.255Z,20.80
2019-01-12T21:47:50.733Z,20.80
2019-01-12T21:50:45.311Z,20.70
2019-01-12T21:53:40.137Z,20.70
2019-01-12T21:56:35.101Z,20.70
2019-01-12T21:59:29.615Z,20.70
2019-01-12T22:02:24.137Z,20.80
2019-01-12T22:05:18.670Z,20.80
2019-01-12T22:08:13.100Z,20.80
2019-01-12T22:11:07.578Z,20.80
2019-01-12T22:14:02.569Z,20.80
2019-01-12T22:16:58.137Z,20.70
2019-01-12T22:19:52.644Z,20.70
2019-01-12T22:22:47.235Z,20.70
2019-01-12T22:25:42.475Z,20.70
2019-01-12T22:28:37.311Z,20.70
2019-01-12T22:31:31.915Z,20.60
2019-01-12T22:34:26.700Z,20.60
2019-01-12T22:37:21.682Z,20.60
2019-01-12T22:40:19.636Z,20.60
2019-01-12T22:43:14.219Z,20.50
2019-01-12T22:46:09.154Z,20.50
2019-01-12T22:49:04.011Z,20.50
2019-01-12T22:51:58.569Z,20.50
2019-01-12T22:54:53.598Z,20.40
2019-01-12T22:57:48.288Z,20.40
2019-01-12T23:01:02.567Z,20.40
2019-01-12T23:03:56.779Z,20.40
2019-01-12T23:06:51.620Z,20.40
2019-01-12T23:09:46.579Z,20.40
2019-01-12T23:12:41.027Z,20.40
2019-01-12T23:15:35.400Z,20.40
2019-01-12T23:18:30.286Z,20.40
2019-01-12T23:21:25.365Z,20.40
2019-01-12T23:24:20.568Z,20.40
2019-01-12T23:27:15.461Z,20.40
2019-01-12T23:30:12.403Z,20.40
2019-01-12T23:33:07.207Z,20.40
2019-01-12T23:36:02.218Z,20.40
2019-01-12T23:38:56.884Z,20.40
2019-01-12T23:41:51.659Z,20.30
2019-01-12T23:44:46.399Z,20.30
2019-01-12T23:47:40.917Z,20.30
2019-01-12T23:50:35.628Z,20.20
2019-01-12T23:53:30.518Z,20.20
2019-01-12T23:56:25.054Z,20.20
2019-01-12T23:59:19.921Z,20.20
